Time;durP1;ratioP1;P1;durP2;ratioP2;P2;SDS_P1;SDS_P2;PMS_P1;PMS_P2;Temp;Humidity;BMP_temperature;BMP_pressure;BME280_temperature;BME280_humidity;BME280_pressure;Samples;Min_cycle;Max_cycle;Signal;HPM_P1;HPM_P2
2022/08/19 00:01:31;;;;;;;5.25;3.75;;;17.50;99.90;;;;;;5029754;28;20045;-62
2022/08/19 00:04:03;;;;;;;8.05;4.05;;;17.40;99.90;;;;;;5030614;28;20048;-65
2022/08/19 00:06:29;;;;;;;;;;;17.40;99.90;;;;;;5031476;28;20041;-65
2022/08/19 00:08:56;;;;;;;4.93;4.30;;;17.40;99.90;;;;;;5031071;28;19923;-65
2022/08/19 00:11:22;;;;;;;6.30;5.00;;;17.40;99.90;;;;;;5030992;28;20041;-65
2022/08/19 00:13:49;;;;;;;6.85;6.10;;;17.50;99.90;;;;;;5030603;28;20029;-65
2022/08/19 00:16:19;;;;;;;9.68;6.25;;;17.50;99.90;;;;;;5030788;28;20049;-65
2022/08/19 00:18:45;;;;;;;10.38;6.05;;;17.50;99.90;;;;;;5031049;28;20038;-65
2022/08/19 00:21:10;;;;;;;10.27;5.97;;;17.50;99.90;;;;;;5030825;28;20037;-65
2022/08/19 00:23:36;;;;;;;8.02;6.63;;;17.50;99.90;;;;;;5030806;28;20033;-63
2022/08/19 00:26:06;;;;;;;8.63;6.72;;;17.40;99.90;;;;;;5030424;28;20049;-63
2022/08/19 00:28:33;;;;;;;10.10;6.88;;;17.40;99.90;;;;;;5028962;28;20069;-63
2022/08/19 00:30:59;;;;;;;8.38;6.53;;;17.50;99.90;;;;;;5030490;28;20037;-63
2022/08/19 00:33:25;;;;;;;12.05;6.70;;;17.50;99.90;;;;;;5030819;28;20087;-63
2022/08/19 00:35:50;;;;;;;9.43;6.63;;;17.40;99.90;;;;;;5028624;28;20049;-63
2022/08/19 00:38:16;;;;;;;9.68;6.68;;;17.40;99.90;;;;;;5030774;28;20052;-63
2022/08/19 00:40:47;;;;;;;9.40;6.95;;;17.40;99.90;;;;;;5030651;28;20574;-63
2022/08/19 00:43:17;;;;;;;9.82;6.68;;;17.30;99.90;;;;;;5030710;28;20089;-63
2022/08/19 00:45:43;;;;;;;7.40;6.47;;;17.20;99.90;;;;;;5030216;28;20053;-63
2022/08/19 00:48:10;;;;;;;11.68;6.63;;;17.10;99.90;;;;;;5030488;28;20037;-62
2022/08/19 00:50:39;;;;;;;10.23;7.50;;;17.10;99.90;;;;;;5030552;28;20054;-63
2022/08/19 00:53:06;;;;;;;8.95;6.72;;;17.10;99.90;;;;;;5030632;28;20037;-63
2022/08/19 00:55:33;;;;;;;11.57;6.82;;;17.20;99.90;;;;;;5030252;28;20041;-62
2022/08/19 00:58:03;;;;;;;10.35;6.88;;;17.20;99.90;;;;;;5030524;28;20041;-62
2022/08/19 01:00:30;;;;;;;9.13;7.00;;;17.10;99.90;;;;;;5030378;28;20487;-63
2022/08/19 01:02:56;;;;;;;13.82;7.90;;;17.00;99.90;;;;;;5030374;28;20415;-62
2022/08/19 01:05:27;;;;;;;10.23;7.85;;;17.00;99.90;;;;;;5030133;28;20034;-62
2022/08/19 01:07:53;;;;;;;10.77;7.60;;;17.00;99.90;;;;;;5029049;28;20037;-63
2022/08/19 01:10:22;;;;;;;14.40;7.43;;;17.10;99.90;;;;;;5030218;28;20550;-63
2022/08/19 01:12:49;;;;;;;10.85;7.55;;;17.10;99.90;;;;;;5030370;28;20038;-63
2022/08/19 01:15:25;;;;;;;9.38;7.78;;;17.10;99.90;;;;;;5030030;28;20034;-62
2022/08/19 01:17:51;;;;;;;10.80;8.48;;;17.10;99.90;;;;;;5030577;28;20045;-62
2022/08/19 01:20:20;;;;;;;9.43;7.85;;;17.10;99.90;;;;;;5030340;28;20029;-62
2022/08/19 01:22:49;;;;;;;12.73;8.18;;;17.10;99.90;;;;;;5030151;28;20041;-62
2022/08/19 01:25:19;;;;;;;10.77;8.93;;;17.10;99.90;;;;;;5029978;28;20712;-63
2022/08/19 01:27:47;;;;;;;11.38;8.20;;;17.10;99.90;;;;;;5030122;28;20049;-62
2022/08/19 01:30:26;;;;;;;12.18;8.52;;;17.10;99.90;;;;;;5030054;28;20168;-62
2022/08/19 01:32:53;;;;;;;13.75;9.18;;;17.10;99.90;;;;;;5030291;28;20041;-62
2022/08/19 01:35:20;;;;;;;10.52;8.57;;;17.10;99.90;;;;;;5029508;28;20522;-62
2022/08/19 01:37:55;;;;;;;13.32;8.82;;;17.10;99.90;;;;;;5030072;28;20049;-62
2022/08/19 01:40:24;;;;;;;10.23;8.27;;;17.10;99.90;;;;;;5029934;28;20045;-62
2022/08/19 01:42:51;;;;;;;9.95;8.55;;;17.10;99.90;;;;;;5033764;28;20034;-62
2022/08/19 01:45:19;;;;;;;9.07;7.22;;;17.00;99.90;;;;;;5033321;28;20122;-63
2022/08/19 01:47:44;;;;;;;8.60;7.55;;;17.00;99.90;;;;;;5033585;28;20121;-63
2022/08/19 01:50:11;;;;;;;13.70;7.82;;;16.90;99.90;;;;;;5033422;28;20128;-62
2022/08/19 01:52:38;;;;;;;7.13;6.43;;;16.80;99.90;;;;;;5032164;28;20045;-62
2022/08/19 01:55:07;;;;;;;8.50;6.20;;;16.80;99.90;;;;;;5033025;28;20112;-62
2022/08/19 01:57:32;;;;;;;7.10;4.25;;;16.70;99.90;;;;;;5033222;28;20080;-62
2022/08/19 01:59:59;;;;;;;5.72;4.18;;;16.60;99.90;;;;;;5033295;28;20072;-62
2022/08/19 02:02:25;;;;;;;4.80;3.53;;;16.50;99.90;;;;;;5033323;28;20037;-62
2022/08/19 02:04:50;;;;;;;5.68;3.05;;;16.60;99.90;;;;;;5033179;28;20387;-63
2022/08/19 02:07:20;;;;;;;3.47;3.17;;;16.60;99.90;;;;;;5032972;28;20514;-62
2022/08/19 02:09:45;;;;;;;7.13;3.90;;;16.60;99.90;;;;;;5033102;28;20049;-63
2022/08/19 02:12:11;;;;;;;5.05;3.20;;;16.50;99.90;;;;;;5033234;28;20037;-62
2022/08/19 02:14:36;;;;;;;4.78;3.60;;;16.50;99.90;;;;;;5031504;28;20199;-65
2022/08/19 02:17:02;;;;;;;4.47;2.50;;;16.40;99.90;;;;;;5033069;28;20507;-65
2022/08/19 02:19:28;;;;;;;4.53;3.38;;;16.30;99.90;;;;;;5032968;28;20116;-65
2022/08/19 02:21:53;;;;;;;4.10;3.70;;;16.20;99.90;;;;;;5032849;28;20142;-65
2022/08/19 02:24:19;;;;;;;3.83;3.22;;;16.10;99.90;;;;;;5032430;28;20050;-65
2022/08/19 02:26:44;;;;;;;5.32;4.28;;;16.20;99.90;;;;;;5032673;28;20048;-63
2022/08/19 02:29:10;;;;;;;7.50;4.78;;;16.10;99.90;;;;;;5032741;28;20095;-63
2022/08/19 02:31:36;;;;;;;6.32;4.45;;;16.10;99.90;;;;;;5032656;28;20141;-63
2022/08/19 02:34:02;;;;;;;5.30;4.70;;;16.10;99.90;;;;;;5031886;28;20041;-63
2022/08/19 02:36:27;;;;;;;7.57;4.95;;;16.20;99.90;;;;;;5032726;28;20095;-63
2022/08/19 02:38:54;;;;;;;6.70;4.65;;;16.30;99.90;;;;;;5032633;28;20568;-63
2022/08/19 02:41:23;;;;;;;6.15;5.47;;;16.30;99.90;;;;;;5032489;28;20514;-63
2022/08/19 02:43:49;;;;;;;6.13;5.25;;;16.30;99.90;;;;;;5032266;28;20045;-63
2022/08/19 02:46:23;;;;;;;5.00;4.25;;;16.30;99.90;;;;;;5032279;28;20132;-62
2022/08/19 02:48:51;;;;;;;4.43;3.80;;;16.20;99.90;;;;;;5032591;28;20042;-63
2022/08/19 02:51:19;;;;;;;5.88;4.13;;;16.20;99.90;;;;;;5032226;28;20045;-63
2022/08/19 02:53:45;;;;;;;4.32;3.63;;;16.20;99.90;;;;;;5031963;28;20054;-63
2022/08/19 02:56:10;;;;;;;5.20;3.78;;;16.30;99.90;;;;;;5032343;28;20436;-63
2022/08/19 02:58:36;;;;;;;4.13;3.28;;;16.30;99.90;;;;;;5031128;28;20049;-63
2022/08/19 03:01:02;;;;;;;5.63;3.55;;;16.40;99.90;;;;;;5032284;28;20041;-63
2022/08/19 03:03:27;;;;;;;4.60;3.92;;;16.30;99.90;;;;;;5032177;28;20071;-63
2022/08/19 03:06:04;;;;;;;4.68;3.90;;;16.30;99.90;;;;;;5031652;28;20049;-63
2022/08/19 03:08:30;;;;;;;5.78;4.68;;;16.30;99.90;;;;;;5031934;28;20037;-63
2022/08/19 03:10:55;;;;;;;8.00;5.43;;;16.30;99.90;;;;;;5031938;28;20056;-63
2022/08/19 03:13:21;;;;;;;8.23;6.00;;;16.30;99.90;;;;;;5031803;28;20099;-63
2022/08/19 03:15:47;;;;;;;6.82;5.22;;;16.30;99.90;;;;;;5031773;28;20037;-63
2022/08/19 03:18:14;;;;;;;6.72;4.85;;;16.30;99.90;;;;;;5032054;28;20494;-63
2022/08/19 03:20:44;;;;;;;5.70;4.75;;;16.30;99.90;;;;;;5031989;28;20041;-63
2022/08/19 03:23:12;;;;;;;8.35;5.50;;;16.30;99.90;;;;;;5031946;28;20095;-63
2022/08/19 03:25:43;;;;;;;9.85;5.38;;;16.20;99.90;;;;;;5031448;28;20044;-63
2022/08/19 03:28:13;;;;;;;5.50;4.38;;;16.20;99.90;;;;;;5031793;28;20056;-63
2022/08/19 03:30:43;;;;;;;8.55;5.80;;;16.20;99.90;;;;;;5031631;28;20067;-63
2022/08/19 03:33:11;;;;;;;7.40;5.60;;;16.20;99.90;;;;;;5031808;28;20060;-63
2022/08/19 03:35:38;;;;;;;8.00;5.75;;;16.30;99.90;;;;;;5030732;28;20089;-63
2022/08/19 03:38:06;;;;;;;6.88;4.68;;;16.20;99.90;;;;;;5031235;28;20037;-63
2022/08/19 03:40:34;;;;;;;6.72;4.30;;;16.10;99.90;;;;;;5031477;28;20116;-63
2022/08/19 03:43:00;;;;;;;6.25;4.43;;;16.00;99.90;;;;;;5031432;28;20041;-63
2022/08/19 03:45:27;;;;;;;5.40;4.57;;;15.90;99.90;;;;;;5031118;28;20083;-63
2022/08/19 03:47:53;;;;;;;8.52;4.57;;;15.90;99.90;;;;;;5031257;28;20116;-63
2022/08/19 03:50:19;;;;;;;5.18;4.35;;;16.00;99.90;;;;;;5031106;28;20157;-63
2022/08/19 03:52:50;;;;;;;5.68;3.95;;;15.90;99.90;;;;;;5031185;28;20041;-63
2022/08/19 03:55:16;;;;;;;5.20;4.18;;;15.90;99.90;;;;;;5031047;28;20407;-63
2022/08/19 03:57:41;;;;;;;5.78;4.15;;;15.90;99.90;;;;;;5031196;28;20046;-63
2022/08/19 04:00:07;;;;;;;7.55;4.63;;;15.90;99.90;;;;;;5031095;28;20041;-63
2022/08/19 04:02:33;;;;;;;8.35;4.68;;;15.90;99.90;;;;;;5030962;28;20467;-63
2022/08/19 04:04:59;;;;;;;7.20;4.45;;;15.90;99.90;;;;;;5029898;28;20029;-63
2022/08/19 04:07:24;;;;;;;5.85;4.32;;;15.90;99.90;;;;;;5031056;28;20073;-63
2022/08/19 04:09:51;;;;;;;8.05;4.72;;;15.90;99.90;;;;;;5030877;28;20044;-63
2022/08/19 04:12:19;;;;;;;6.15;3.60;;;15.90;99.90;;;;;;5030946;28;20087;-63
2022/08/19 04:14:44;;;;;;;4.82;3.83;;;15.80;99.90;;;;;;5029308;28;20041;-63
2022/08/19 04:17:10;;;;;;;3.97;3.45;;;15.80;99.90;;;;;;5030835;28;20080;-63
2022/08/19 04:19:36;;;;;;;4.25;3.83;;;15.60;99.90;;;;;;5030687;28;20045;-63
2022/08/19 04:22:03;;;;;;;9.48;3.95;;;15.50;99.90;;;;;;5031066;28;20048;-63
2022/08/19 04:24:29;;;;;;;5.35;4.20;;;15.50;99.90;;;;;;5029526;28;20658;-63
2022/08/19 04:26:55;;;;;;;4.72;3.58;;;15.60;99.90;;;;;;5027605;28;20037;-63
2022/08/19 04:29:24;;;;;;;4.75;3.72;;;15.70;99.90;;;;;;5028330;28;20091;-63
2022/08/19 04:31:52;;;;;;;7.13;5.30;;;15.70;99.90;;;;;;5028127;28;20049;-63
2022/08/19 04:34:22;;;;;;;6.85;5.13;;;15.60;99.90;;;;;;5028544;28;20045;-63
2022/08/19 04:36:50;;;;;;;7.95;5.00;;;15.40;99.90;;;;;;5030241;28;20046;-63
2022/08/19 04:39:19;;;;;;;6.00;4.50;;;15.60;99.90;;;;;;5029920;28;20523;-63
2022/08/19 04:44:32;;;;;;;7.13;4.88;;;15.70;99.90;;;;;;5029326;28;20056;-63
2022/08/19 04:46:58;;;;;;;10.30;5.00;;;15.70;99.90;;;;;;5030315;28;20053;-63
2022/08/19 04:49:24;;;;;;;9.32;5.80;;;15.60;99.90;;;;;;5030558;28;20042;-63
2022/08/19 04:51:54;;;;;;;7.70;5.35;;;15.40;99.90;;;;;;5030546;28;20045;-63
2022/08/19 04:54:22;;;;;;;6.55;5.22;;;15.40;99.90;;;;;;5030201;28;20087;-64
2022/08/19 04:56:52;;;;;;;7.60;4.40;;;15.40;99.90;;;;;;5030375;28;20038;-64
2022/08/19 04:59:19;;;;;;;6.97;4.53;;;15.40;99.90;;;;;;5029242;28;20129;-63
2022/08/19 05:01:49;;;;;;;6.15;4.30;;;15.40;99.90;;;;;;5030551;28;20418;-63
2022/08/19 05:04:16;;;;;;;7.72;4.10;;;15.50;99.90;;;;;;5030138;28;20049;-63
2022/08/19 05:06:42;;;;;;;5.75;3.13;;;15.50;99.90;;;;;;5029123;28;20049;-63
2022/08/19 05:09:08;;;;;;;4.90;3.78;;;15.60;99.90;;;;;;5029997;28;20041;-64
2022/08/19 05:11:38;;;;;;;11.40;3.22;;;15.50;99.90;;;;;;5029036;28;20052;-64
2022/08/19 05:14:04;;;;;;;5.03;3.80;;;15.50;99.90;;;;;;5028764;28;20048;-64
2022/08/19 05:16:29;;;;;;;5.68;4.38;;;15.50;99.90;;;;;;5033689;28;20033;-64
2022/08/19 05:24:26;;;;;;;8.02;4.82;;;15.70;99.90;;;;;;5033902;28;20057;-63
2022/08/19 05:26:56;;;;;;;10.70;5.63;;;15.80;99.90;;;;;;5033940;28;20064;-63
2022/08/19 05:29:23;;;;;;;7.07;5.60;;;15.90;99.90;;;;;;5016020;28;20080;-64
2022/08/19 05:31:50;;;;;;;9.77;5.85;;;16.00;99.90;;;;;;5033841;28;20626;-64
2022/08/19 05:34:17;;;;;;;7.60;6.00;;;16.10;99.90;;;;;;5033200;28;20045;-64
2022/08/19 05:36:45;;;;;;;13.50;6.55;;;16.20;99.90;;;;;;5033897;28;20407;-63
2022/08/19 05:39:15;;;;;;;8.27;5.80;;;16.30;99.90;;;;;;5033641;28;20140;-63
2022/08/19 05:41:46;;;;;;;7.38;6.25;;;16.40;99.90;;;;;;5033816;28;20045;-63
2022/08/19 05:44:12;;;;;;;9.55;6.50;;;16.40;99.90;;;;;;5032189;28;20099;-63
2022/08/19 05:46:39;;;;;;;8.63;6.80;;;16.40;99.90;;;;;;5032483;28;20071;-63
2022/08/19 05:49:06;;;;;;;9.63;7.07;;;16.50;99.90;;;;;;5033539;28;20156;-63
2022/08/19 05:51:34;;;;;;;9.15;6.72;;;16.70;99.90;;;;;;5032241;28;20096;-65
2022/08/19 05:54:00;;;;;;;13.73;8.07;;;16.90;99.90;;;;;;5031931;28;20045;-65
2022/08/19 05:56:26;;;;;;;12.25;8.90;;;17.20;99.90;;;;;;5033420;28;20134;-65
2022/08/19 05:58:53;;;;;;;14.70;10.77;;;17.30;99.90;;;;;;5033275;28;20116;-65
2022/08/19 06:01:19;;;;;;;16.40;11.40;;;17.50;99.90;;;;;;5022766;28;20038;-65
2022/08/19 06:03:47;;;;;;;18.92;13.13;;;17.60;99.90;;;;;;5012229;28;20125;-65
2022/08/19 06:06:14;;;;;;;21.83;11.65;;;17.80;99.90;;;;;;5013538;28;20042;-65
2022/08/19 06:08:42;;;;;;;13.93;8.57;;;17.70;99.90;;;;;;5013315;28;20034;-66
2022/08/19 06:11:19;;;;;;;10.88;7.90;;;17.80;99.90;;;;;;5013278;28;20395;-66
2022/08/19 06:13:47;;;;;;;12.00;8.82;;;17.80;99.90;;;;;;5013204;28;20048;-66
2022/08/19 06:16:19;;;;;;;17.23;11.23;;;17.90;99.90;;;;;;5013321;28;20072;-65
2022/08/19 06:18:45;;;;;;;18.35;12.38;;;18.10;99.90;;;;;;5013338;28;20055;-65
2022/08/19 06:21:10;;;;;;;17.17;12.45;;;18.40;99.90;;;;;;5013084;28;20165;-66
2022/08/19 06:23:36;;;;;;;20.88;13.55;;;18.50;99.90;;;;;;5011957;28;20080;-65
2022/08/19 06:26:01;;;;;;;20.65;12.20;;;18.60;99.90;;;;;;5012384;28;20089;-66
2022/08/19 06:28:27;;;;;;;17.10;12.52;;;18.70;99.90;;;;;;5012486;28;20038;-65
2022/08/19 06:30:52;;;;;;;16.02;10.82;;;18.80;99.90;;;;;;5011739;28;20037;-65
2022/08/19 06:33:18;;;;;;;14.85;11.38;;;18.90;99.90;;;;;;5011865;28;20037;-66
2022/08/19 06:35:43;;;;;;;17.67;11.57;;;19.00;99.90;;;;;;5012350;28;20077;-65
2022/08/19 06:38:09;;;;;;;15.10;11.07;;;19.00;99.90;;;;;;5012761;28;20515;-65
2022/08/19 06:40:37;;;;;;;20.80;12.68;;;19.20;99.90;;;;;;5012850;28;20034;-65
2022/08/19 06:43:03;;;;;;;20.80;13.63;;;19.10;99.90;;;;;;5012780;28;20038;-65
2022/08/19 06:45:30;;;;;;;15.25;13.05;;;19.20;99.90;;;;;;5011023;28;20415;-65
2022/08/19 06:47:56;;;;;;;17.75;12.90;;;19.20;99.90;;;;;;5012729;28;20440;-65
2022/08/19 06:50:24;;;;;;;19.55;13.75;;;19.20;99.90;;;;;;5012485;28;20084;-65
2022/08/19 06:52:50;;;;;;;20.25;14.55;;;19.30;99.90;;;;;;5011440;28;20037;-65
2022/08/19 06:55:15;;;;;;;21.63;13.93;;;19.40;99.90;;;;;;5012419;28;20100;-65
2022/08/19 06:57:42;;;;;;;18.63;13.07;;;19.40;99.90;;;;;;5012514;28;20053;-65
2022/08/19 07:00:13;;;;;;;19.10;13.93;;;19.40;99.90;;;;;;5012513;28;20048;-65
2022/08/19 07:02:39;;;;;;;18.00;13.07;;;19.40;99.90;;;;;;5012708;28;20091;-66
2022/08/19 07:05:06;;;;;;;23.30;13.57;;;19.50;99.90;;;;;;5011939;28;20053;-65
2022/08/19 07:07:31;;;;;;;16.58;13.20;;;19.50;99.90;;;;;;5012311;28;20041;-65
2022/08/19 07:09:57;;;;;;;18.10;14.38;;;19.60;99.90;;;;;;5012232;28;20388;-65
2022/08/19 07:12:22;;;;;;;19.70;13.20;;;19.60;99.90;;;;;;5012235;28;20623;-66
2022/08/19 07:14:49;;;;;;;19.05;13.85;;;19.70;99.90;;;;;;5011958;28;20030;-65
2022/08/19 07:17:15;;;;;;;19.60;13.55;;;19.80;99.90;;;;;;5012186;28;20120;-65
2022/08/19 07:19:42;;;;;;;16.90;12.75;;;19.90;99.90;;;;;;5011915;28;20176;-66
2022/08/19 07:22:09;;;;;;;22.65;13.60;;;19.90;99.90;;;;;;5010798;28;20459;-66
2022/08/19 07:24:37;;;;;;;19.02;13.10;;;19.90;99.90;;;;;;5011897;28;20057;-66
2022/08/19 07:27:04;;;;;;;17.95;13.45;;;19.80;99.90;;;;;;5012031;28;20038;-66
2022/08/19 07:29:32;;;;;;;20.52;13.93;;;19.90;99.90;;;;;;5011912;28;20034;-64
2022/08/19 07:31:59;;;;;;;25.70;14.98;;;20.00;99.90;;;;;;5023625;28;20116;-62
2022/08/19 07:34:27;;;;;;;18.35;14.45;;;20.10;99.90;;;;;;5010865;28;20038;-64
2022/08/19 07:36:54;;;;;;;22.17;14.27;;;20.10;99.90;;;;;;5011694;28;20407;-63
2022/08/19 07:39:28;;;;;;;22.15;15.48;;;20.20;99.90;;;;;;5011567;28;20042;-65
2022/08/19 07:41:56;;;;;;;23.10;14.98;;;20.30;99.90;;;;;;5013178;28;20487;-65
2022/08/19 07:44:22;;;;;;;20.65;14.43;;;20.40;99.90;;;;;;5026478;28;20041;-65
2022/08/19 07:46:51;;;;;;;22.27;14.82;;;20.40;99.90;;;;;;5030539;28;20496;-65
2022/08/19 07:49:19;;;;;;;20.05;14.30;;;20.50;99.90;;;;;;5030988;28;20040;-65
2022/08/19 07:52:06;;;;;;;26.25;15.80;;;20.40;99.90;;;;;;5020574;28;20038;-65
2022/08/19 07:54:35;;;;;;;18.55;13.95;;;20.50;99.90;;;;;;5010894;28;20073;-65
2022/08/19 07:57:01;;;;;;;19.65;15.00;;;20.50;99.90;;;;;;5021252;28;20064;-65
2022/08/19 07:59:28;;;;;;;22.95;15.32;;;20.60;99.90;;;;;;5029876;28;20049;-65
2022/08/19 08:01:54;;;;;;;23.27;16.05;;;20.60;99.90;;;;;;5030897;28;20049;-65
2022/08/19 08:09:51;;;;;;;24.17;15.70;;;20.80;99.90;;;;;;5023942;28;20038;-65
2022/08/19 08:12:24;;;;;;;23.40;16.38;;;20.90;99.90;;;;;;5019320;28;20407;-65
2022/08/19 08:14:53;;;;;;;19.38;14.27;;;21.00;99.90;;;;;;5027832;28;20069;-66
2022/08/19 08:17:21;;;;;;;23.40;13.57;;;21.00;99.90;;;;;;5030978;28;20415;-66
2022/08/19 08:19:50;;;;;;;17.30;13.02;;;21.10;99.90;;;;;;5031213;28;20057;-67
2022/08/19 08:25:07;;;;;;;15.57;13.07;;;21.10;99.90;;;;;;5029596;28;20061;-67
2022/08/19 08:27:39;;;;;;;14.00;10.68;;;21.20;99.90;;;;;;5030695;28;20041;-67
2022/08/19 08:30:08;;;;;;;19.35;11.43;;;21.20;99.90;;;;;;5030599;28;20518;-65
2022/08/19 08:32:35;;;;;;;15.70;12.00;;;21.40;99.90;;;;;;5030878;28;20045;-65
2022/08/19 08:35:01;;;;;;;18.95;12.98;;;21.50;99.90;;;;;;5030465;28;20045;-65
2022/08/19 08:37:26;;;;;;;18.33;13.32;;;21.70;99.90;;;;;;5030614;28;20037;-65
2022/08/19 08:39:52;;;;;;;16.30;12.65;;;21.70;99.90;;;;;;5030473;28;20038;-65
2022/08/19 08:42:27;;;;;;;18.52;12.80;;;21.80;99.90;;;;;;5030552;28;20041;-65
2022/08/19 08:45:01;;;;;;;18.27;12.20;;;22.00;99.90;;;;;;5030241;28;20128;-65
2022/08/19 08:47:38;;;;;;;17.48;12.18;;;22.00;99.90;;;;;;5030370;28;20384;-66
2022/08/19 08:50:22;;;;;;;15.65;11.77;;;22.20;99.90;;;;;;5031498;28;20471;-65
2022/08/19 08:52:53;;;;;;;18.73;11.32;;;22.30;99.90;;;;;;5034563;28;20123;-66
2022/08/19 08:55:22;;;;;;;15.52;11.82;;;22.20;99.90;;;;;;5032879;28;20042;-66
2022/08/19 08:57:51;;;;;;;14.88;10.27;;;22.20;99.90;;;;;;5033528;28;20041;-65
2022/08/19 09:00:34;;;;;;;15.13;10.38;;;22.20;99.90;;;;;;5034608;28;20049;-65
2022/08/19 09:03:01;;;;;;;19.17;11.90;;;22.20;99.90;;;;;;5034414;28;20127;-66
2022/08/19 09:05:45;;;;;;;16.80;12.00;;;22.20;99.90;;;;;;5033913;28;20029;-66
2022/08/19 09:08:31;;;;;;;15.88;12.35;;;22.20;99.90;;;;;;5034508;28;20052;-67
2022/08/19 09:10:57;;;;;;;16.67;12.65;;;22.30;99.90;;;;;;5034167;28;20042;-66
2022/08/19 09:13:40;;;;;;;17.85;12.02;;;22.20;99.90;;;;;;5034252;28;20041;-66
2022/08/19 09:16:15;;;;;;;15.55;11.50;;;22.20;99.90;;;;;;5034242;28;20096;-66
2022/08/19 09:18:48;;;;;;;18.55;12.98;;;22.40;99.90;;;;;;5033984;28;20173;-67
2022/08/19 09:21:15;;;;;;;16.98;12.05;;;22.50;99.90;;;;;;5033047;28;20081;-66
2022/08/19 09:23:42;;;;;;;18.35;11.40;;;22.60;99.90;;;;;;5034074;28;20643;-67
2022/08/19 09:26:13;;;;;;;18.25;12.10;;;22.60;99.90;;;;;;5033947;28;20135;-66
2022/08/19 09:28:43;;;;;;;15.77;12.15;;;22.60;99.90;;;;;;5034097;28;20147;-66
2022/08/19 09:31:13;;;;;;;14.90;11.00;;;22.70;99.90;;;;;;5033866;28;20037;-66
2022/08/19 09:33:39;;;;;;;13.23;10.43;;;22.80;99.90;;;;;;5027685;28;20160;-66
2022/08/19 09:36:10;;;;;;;13.85;10.60;;;22.90;99.90;;;;;;5021989;28;20072;-66
2022/08/19 09:38:38;;;;;;;16.00;10.67;;;23.00;99.90;;;;;;5022111;28;20033;-65
2022/08/19 09:41:05;;;;;;;13.80;10.10;;;23.10;99.90;;;;;;5030013;28;20045;-65
2022/08/19 09:43:33;;;;;;;17.60;11.65;;;23.20;99.90;;;;;;5033465;28;20049;-65
2022/08/19 09:46:00;;;;;;;14.73;11.35;;;23.30;99.90;;;;;;5032332;28;20120;-66
2022/08/19 09:48:26;;;;;;;18.38;11.65;;;23.30;99.90;;;;;;5033651;28;20087;-66
2022/08/19 09:50:51;;;;;;;17.63;11.90;;;23.40;99.90;;;;;;5033504;28;20049;-66
2022/08/19 09:53:17;;;;;;;16.33;11.77;;;23.30;99.90;;;;;;5032364;28;20044;-66
2022/08/19 09:55:43;;;;;;;15.45;10.70;;;23.30;99.90;;;;;;5033363;28;20037;-66
2022/08/19 09:58:09;;;;;;;16.90;11.25;;;23.40;99.90;;;;;;5033419;28;20422;-66
2022/08/19 10:00:37;;;;;;;14.82;11.50;;;23.50;99.90;;;;;;5033502;28;20088;-66
2022/08/19 10:03:03;;;;;;;16.95;11.32;;;23.60;99.90;;;;;;5032410;28;20088;-66
2022/08/19 10:08:13;;;;;;;11.25;9.25;;;23.60;99.90;;;;;;5033363;28;20107;-66
2022/08/19 10:10:39;;;;;;;12.48;10.45;;;23.60;99.90;;;;;;5033187;28;20033;-66
2022/08/19 10:13:05;;;;;;;11.65;9.18;;;23.50;99.90;;;;;;5033363;28;20037;-66
2022/08/19 10:15:30;;;;;;;15.93;11.77;;;23.70;99.90;;;;;;5032788;28;20582;-66
2022/08/19 10:17:56;;;;;;;16.13;12.88;;;23.70;99.90;;;;;;5033069;28;20049;-66
2022/08/19 10:20:22;;;;;;;17.38;11.93;;;23.80;99.90;;;;;;5032673;28;20128;-66
2022/08/19 10:22:48;;;;;;;15.90;10.20;;;23.80;99.90;;;;;;5032832;28;20072;-66
2022/08/19 10:25:14;;;;;;;11.45;8.95;;;23.80;99.90;;;;;;5032532;28;20411;-66
2022/08/19 10:27:40;;;;;;;14.15;10.05;;;23.90;99.90;;;;;;5032914;28;20041;-66
2022/08/19 10:30:06;;;;;;;13.38;10.32;;;24.00;99.90;;;;;;5032953;28;20041;-66
2022/08/19 10:32:31;;;;;;;13.48;10.13;;;24.00;99.90;;;;;;5032841;28;20056;-66
2022/08/19 10:34:57;;;;;;;15.40;9.82;;;24.20;99.90;;;;;;5032471;28;20444;-66
2022/08/19 10:37:22;;;;;;;11.88;9.70;;;24.20;99.90;;;;;;5032501;28;20100;-66
2022/08/19 10:39:48;;;;;;;13.48;10.30;;;24.10;99.90;;;;;;5031356;28;20414;-66
2022/08/19 10:42:15;;;;;;;9.93;7.97;;;24.10;99.90;;;;;;5032752;28;20045;-66
2022/08/19 10:44:41;;;;;;;12.10;8.45;;;24.20;99.90;;;;;;5032419;28;20084;-66
2022/08/19 10:47:07;;;;;;;9.70;7.50;;;24.30;99.90;;;;;;5032534;28;20135;-66
2022/08/19 10:52:32;;;;;;;10.80;8.50;;;24.40;99.90;;;;;;5030963;28;20407;-66
2022/08/19 10:52:33;;;;;;;14.48;9.05;;;24.40;99.90;;;;;;5032301;28;20067;-66
2022/08/19 10:57:44;;;;;;;13.07;8.90;;;24.50;99.90;;;;;;5032241;28;20411;-66
2022/08/19 11:00:10;;;;;;;11.13;9.88;;;24.70;99.90;;;;;;5032012;28;20041;-67
2022/08/19 11:02:36;;;;;;;12.07;8.30;;;24.70;99.90;;;;;;5032396;28;20049;-66
2022/08/19 11:05:01;;;;;;;9.50;7.55;;;24.70;99.90;;;;;;5028197;28;20041;-66
2022/08/19 11:07:27;;;;;;;10.02;7.90;;;24.70;99.90;;;;;;5017368;28;20412;-66
2022/08/19 11:09:52;;;;;;;14.80;7.95;;;24.70;99.90;;;;;;5012205;28;20041;-66
2022/08/19 11:12:19;;;;;;;9.18;8.07;;;24.60;99.90;;;;;;5012181;28;20033;-66
2022/08/19 11:14:44;;;;;;;11.13;8.10;;;24.60;99.90;;;;;;5011713;28;20048;-66
2022/08/19 11:17:13;;;;;;;9.20;7.10;;;24.60;99.90;;;;;;5012379;28;20121;-66
2022/08/19 11:19:39;;;;;;;8.45;6.93;;;24.70;99.90;;;;;;5010667;28;20124;-66
2022/08/19 11:22:10;;;;;;;9.05;7.88;;;24.60;99.90;;;;;;5012551;28;20073;-66
2022/08/19 11:24:36;;;;;;;11.80;7.95;;;24.70;99.90;;;;;;5020981;28;20037;-66
2022/08/19 11:27:08;;;;;;;9.73;8.18;;;24.70;99.90;;;;;;5022248;28;20052;-66
2022/08/19 11:29:35;;;;;;;9.57;7.72;;;24.80;99.90;;;;;;5022208;28;20491;-66
2022/08/19 11:32:08;;;;;;;8.63;7.13;;;24.90;99.90;;;;;;5022393;28;20104;-66
2022/08/19 11:34:35;;;;;;;9.68;7.63;;;25.00;99.90;;;;;;5026619;28;20107;-66
2022/08/19 11:37:01;;;;;;;12.20;8.45;;;25.10;99.90;;;;;;5031428;28;20045;-66
2022/08/19 11:39:29;;;;;;;10.52;8.43;;;25.20;99.90;;;;;;5031399;28;20128;-66
2022/08/19 11:41:57;;;;;;;12.15;8.15;;;25.10;99.90;;;;;;5031266;28;20044;-66
2022/08/19 11:44:23;;;;;;;10.13;6.97;;;25.20;99.90;;;;;;5031269;28;20084;-66
2022/08/19 11:46:48;;;;;;;8.45;6.80;;;25.20;99.90;;;;;;5030054;28;20438;-66
2022/08/19 11:49:18;;;;;;;9.80;7.85;;;25.40;99.90;;;;;;5031275;28;20037;-66
2022/08/19 11:51:45;;;;;;;11.25;8.05;;;25.50;99.90;;;;;;5031137;28;20030;-66
2022/08/19 11:54:12;;;;;;;10.07;7.85;;;25.50;99.90;;;;;;5029250;28;20041;-66
2022/08/19 11:56:38;;;;;;;10.25;6.80;;;25.50;99.90;;;;;;5025295;28;20103;-66
2022/08/19 11:59:04;;;;;;;12.50;8.35;;;25.50;99.90;;;;;;5021968;28;20037;-66
2022/08/19 12:01:31;;;;;;;9.15;7.82;;;25.60;99.90;;;;;;5020732;28;20475;-66
2022/08/19 12:03:57;;;;;;;11.88;8.63;;;25.70;99.90;;;;;;5013199;28;20054;-66
2022/08/19 12:06:33;;;;;;;12.27;8.65;;;25.60;99.90;;;;;;5011360;28;20084;-66
2022/08/19 12:09:04;;;;;;;11.52;9.10;;;25.50;99.90;;;;;;5009868;28;20095;-66
2022/08/19 12:11:30;;;;;;;17.35;8.90;;;25.60;99.90;;;;;;5011471;28;20030;-66
2022/08/19 12:13:56;;;;;;;12.02;8.35;;;25.60;99.90;;;;;;5009930;28;20519;-66
2022/08/19 12:16:25;;;;;;;10.82;8.95;;;25.70;99.90;;;;;;5011341;28;20419;-66
2022/08/19 12:18:51;;;;;;;13.20;7.55;;;25.80;99.90;;;;;;5009607;28;20054;-66
2022/08/19 12:21:21;;;;;;;11.13;9.38;;;25.70;99.90;;;;;;5011174;28;20046;-66
2022/08/19 12:23:49;;;;;;;10.55;8.80;;;25.70;99.90;;;;;;5010628;28;20496;-66
2022/08/19 12:26:15;;;;;;;10.15;7.60;;;25.70;99.90;;;;;;5014536;28;20041;-66
2022/08/19 12:28:41;;;;;;;9.45;7.68;;;25.70;99.90;;;;;;5025062;28;20204;-66
2022/08/19 12:31:06;;;;;;;10.23;5.90;;;25.80;99.90;;;;;;5030672;28;20045;-66
2022/08/19 12:33:32;;;;;;;8.15;5.22;;;25.90;99.90;;;;;;5030906;28;20051;-66
2022/08/19 12:36:05;;;;;;;9.05;6.45;;;26.00;99.90;;;;;;5030562;28;20063;-66
2022/08/19 12:38:32;;;;;;;8.75;6.82;;;26.10;99.90;;;;;;5029507;28;20041;-66
2022/08/19 12:40:58;;;;;;;8.75;6.35;;;26.10;99.90;;;;;;5029584;28;20045;-66
2022/08/19 12:43:24;;;;;;;13.07;7.20;;;26.20;99.90;;;;;;5030611;28;20044;-66
2022/08/19 12:45:50;;;;;;;7.45;6.43;;;26.10;99.90;;;;;;5010816;28;20080;-66
2022/08/19 12:48:16;;;;;;;6.45;5.25;;;26.20;99.90;;;;;;5011210;28;20073;-66
2022/08/19 12:50:45;;;;;;;7.47;4.80;;;26.20;99.90;;;;;;5013457;28;20121;-66
2022/08/19 12:53:11;;;;;;;8.70;5.00;;;26.20;99.90;;;;;;5019868;28;20088;-66
2022/08/19 12:55:37;;;;;;;8.30;6.35;;;26.20;99.90;;;;;;5017830;28;20077;-66
2022/08/19 12:58:02;;;;;;;7.45;6.45;;;26.30;99.90;;;;;;5013154;28;20069;-66
2022/08/19 13:00:28;;;;;;;7.78;6.22;;;26.30;99.90;;;;;;5012359;28;20444;-66
2022/08/19 13:02:55;;;;;;;7.32;6.32;;;26.30;99.90;;;;;;5011809;28;20034;-65